Time;durP1;ratioP1;P1;durP2;ratioP2;P2;SDS_P1;SDS_P2;PMS_P1;PMS_P2;Temp;Humidity;BMP_temperature;BMP_pressure;BME280_temperature;BME280_humidity;BME280_pressure;Samples;Min_cycle;Max_cycle;Signal;HPM_P1;HPM_P2
2023/09/14 00:01:26;;;;;;;3.03;2.73;;;16.00;1.00;;;;;;5073206;28;20477;-76
2023/09/14 00:03:55;;;;;;;4.47;2.80;;;16.00;1.00;;;;;;5081479;28;20450;-78
2023/09/14 00:06:22;;;;;;;4.17;2.87;;;16.00;1.00;;;;;;5073816;28;20474;-75
2023/09/14 00:08:49;;;;;;;5.53;3.13;;;16.00;1.00;;;;;;5074249;28;20506;-76
2023/09/14 00:11:16;;;;;;;7.93;2.70;;;16.00;1.00;;;;;;5076203;28;20465;-75
2023/09/14 00:13:43;;;;;;;7.47;2.90;;;16.00;1.00;;;;;;5076132;28;20964;-76
2023/09/14 00:16:09;;;;;;;5.57;2.53;;;16.00;1.00;;;;;;5077350;28;20912;-77
2023/09/14 00:18:36;;;;;;;4.83;3.20;;;16.00;1.00;;;;;;5038000;28;1100268;-76
2023/09/14 00:21:05;;;;;;;3.80;2.80;;;16.00;1.00;;;;;;5086217;28;20313;-77
2023/09/14 00:23:32;;;;;;;3.43;2.90;;;16.00;1.00;;;;;;5080274;28;20473;-71
2023/09/14 00:25:59;;;;;;;6.70;2.90;;;16.00;1.00;;;;;;5081903;28;20473;-79
2023/09/14 00:28:26;;;;;;;3.70;2.70;;;15.90;1.00;;;;;;5081082;28;20560;-78
2023/09/14 00:30:53;;;;;;;5.07;2.90;;;15.90;1.00;;;;;;5079919;28;20593;-75
2023/09/14 00:33:22;;;;;;;5.00;3.17;;;15.90;1.00;;;;;;5079936;28;20493;-77
2023/09/14 00:35:49;;;;;;;5.27;3.27;;;15.90;1.00;;;;;;5083258;28;20457;-76
2023/09/14 00:38:18;;;;;;;4.13;2.87;;;16.00;1.00;;;;;;5077037;28;20534;-72
2023/09/14 00:40:45;;;;;;;3.33;2.83;;;16.00;1.00;;;;;;5081356;28;20554;-74
2023/09/14 00:43:12;;;;;;;5.50;2.97;;;16.00;1.00;;;;;;5077014;28;20437;-72
2023/09/14 00:45:39;;;;;;;4.03;3.13;;;16.00;1.00;;;;;;5079962;28;20496;-71
2023/09/14 00:48:07;;;;;;;4.53;3.30;;;16.10;1.00;;;;;;5083049;28;20469;-76
2023/09/14 00:50:35;;;;;;;4.00;2.73;;;16.10;1.00;;;;;;5080983;28;20458;-77
2023/09/14 00:53:06;;;;;;;3.80;3.20;;;16.10;1.00;;;;;;5079150;28;20469;-76
2023/09/14 00:55:35;;;;;;;6.33;3.70;;;16.10;1.00;;;;;;5082701;28;20457;-77
2023/09/14 00:58:02;;;;;;;3.90;3.47;;;16.10;1.00;;;;;;5077985;28;20457;-77
2023/09/14 01:00:31;;;;;;;7.03;2.90;;;16.00;1.00;;;;;;5076659;28;20513;-73
2023/09/14 01:02:59;;;;;;;3.77;3.37;;;16.00;1.00;;;;;;5081567;28;20446;-72
2023/09/14 01:05:30;;;;;;;4.70;3.20;;;16.00;1.00;;;;;;5076414;28;20461;-71
2023/09/14 01:07:57;;;;;;;4.77;2.70;;;16.00;1.00;;;;;;5074933;28;20459;-69
2023/09/14 01:10:25;;;;;;;3.73;3.33;;;16.00;1.00;;;;;;5076274;28;20494;-70
2023/09/14 01:12:53;;;;;;;3.70;2.80;;;16.00;1.00;;;;;;5077323;28;21243;-70
2023/09/14 01:15:26;;;;;;;4.60;3.47;;;16.10;1.00;;;;;;5078396;28;20457;-69
2023/09/14 01:18:02;;;;;;;4.60;3.23;;;16.10;1.00;;;;;;5078856;28;20454;-69
2023/09/14 01:20:47;;;;;;;5.07;3.70;;;16.10;1.00;;;;;;5076590;28;20893;-70
2023/09/14 01:23:28;;;;;;;4.07;3.17;;;16.20;1.00;;;;;;5075989;28;20906;-68
2023/09/14 01:25:58;;;;;;;5.33;3.00;;;16.20;1.00;;;;;;5079557;28;21120;-71
2023/09/14 01:28:25;;;;;;;3.27;2.97;;;16.20;1.00;;;;;;5081561;28;20555;-73
2023/09/14 01:30:52;;;;;;;8.20;7.50;;;16.10;1.00;;;;;;5080052;28;20626;-69
2023/09/14 01:33:20;;;;;;;5.20;3.30;;;16.20;1.00;;;;;;5080190;28;20466;-69
2023/09/14 01:35:53;;;;;;;3.97;3.20;;;16.10;1.00;;;;;;5079210;27;20615;-69
2023/09/14 01:38:21;;;;;;;4.30;3.17;;;16.00;1.00;;;;;;5078190;28;20985;-69
2023/09/14 01:40:49;;;;;;;5.43;3.07;;;16.00;1.00;;;;;;5079604;28;22017;-69
2023/09/14 01:43:18;;;;;;;3.70;3.23;;;16.00;1.00;;;;;;5076749;28;20461;-70
2023/09/14 01:45:46;;;;;;;5.10;3.10;;;15.90;1.00;;;;;;5077536;28;20470;-73
2023/09/14 01:48:16;;;;;;;3.90;3.00;;;15.90;1.00;;;;;;5077731;28;20465;-69
2023/09/14 01:50:43;;;;;;;6.53;3.63;;;15.90;1.00;;;;;;5078373;28;20541;-72
2023/09/14 01:53:11;;;;;;;3.83;2.90;;;15.80;1.00;;;;;;5077694;28;20623;-69
2023/09/14 01:55:38;;;;;;;4.40;3.20;;;15.80;1.00;;;;;;5077194;28;20484;-71
2023/09/14 01:58:05;;;;;;;4.10;3.10;;;15.60;1.00;;;;;;5079073;28;20497;-70
2023/09/14 02:00:33;;;;;;;5.33;3.10;;;15.60;1.00;;;;;;5074265;28;20524;-69
2023/09/14 02:03:01;;;;;;;4.77;3.10;;;15.50;1.00;;;;;;5078051;28;21065;-68
2023/09/14 02:05:28;;;;;;;4.50;2.73;;;15.50;1.00;;;;;;5062353;28;20554;-69
2023/09/14 02:07:54;;;;;;;3.50;3.07;;;15.40;1.00;;;;;;5076312;28;20519;-68
2023/09/14 02:10:22;;;;;;;7.93;3.47;;;15.40;1.00;;;;;;5070033;28;20530;-70
2023/09/14 02:12:49;;;;;;;4.83;3.43;;;15.40;1.00;;;;;;5075321;28;20449;-70
2023/09/14 02:15:17;;;;;;;4.87;3.20;;;15.40;1.00;;;;;;5076525;28;21111;-69
2023/09/14 02:17:45;;;;;;;4.17;3.07;;;15.30;1.00;;;;;;5081013;28;20524;-69
2023/09/14 02:20:12;;;;;;;3.90;3.50;;;15.20;1.00;;;;;;5076168;28;20468;-70
2023/09/14 02:22:39;;;;;;;5.83;3.30;;;15.20;1.00;;;;;;5077259;28;20957;-73
2023/09/14 02:25:07;;;;;;;4.20;3.20;;;15.20;1.00;;;;;;5074764;28;20580;-72
2023/09/14 02:27:35;;;;;;;4.63;3.27;;;15.10;1.00;;;;;;5077709;28;20548;-69
2023/09/14 02:30:03;;;;;;;6.10;3.73;;;15.10;1.00;;;;;;5074062;28;21068;-72
2023/09/14 02:32:30;;;;;;;5.37;4.23;;;15.00;1.00;;;;;;5079098;28;21197;-71
2023/09/14 02:34:58;;;;;;;5.73;3.67;;;15.00;1.00;;;;;;5077650;28;20934;-68
2023/09/14 02:37:25;;;;;;;5.87;3.70;;;15.00;1.00;;;;;;5076402;28;22766;-71
2023/09/14 02:39:52;;;;;;;5.33;3.90;;;14.90;1.00;;;;;;5080029;28;21390;-72
2023/09/14 02:42:19;;;;;;;6.00;3.80;;;14.90;1.00;;;;;;5076272;28;20505;-71
2023/09/14 02:44:47;;;;;;;5.40;4.17;;;14.80;1.00;;;;;;5079501;28;20552;-70
2023/09/14 02:47:14;;;;;;;6.07;4.20;;;14.70;1.00;;;;;;5077569;28;20462;-70
2023/09/14 02:49:41;;;;;;;5.93;3.80;;;14.70;1.00;;;;;;5075999;28;20488;-73
2023/09/14 02:52:11;;;;;;;5.50;3.90;;;14.60;1.00;;;;;;5077588;28;20445;-70
2023/09/14 02:54:38;;;;;;;5.03;4.23;;;14.50;1.00;;;;;;5078352;28;20497;-69
2023/09/14 02:57:06;;;;;;;5.67;4.37;;;14.50;1.00;;;;;;5076652;28;20480;-71
2023/09/14 02:59:33;;;;;;;7.80;4.10;;;14.40;1.00;;;;;;5075529;28;20472;-69
2023/09/14 03:01:59;;;;;;;5.23;3.97;;;14.30;1.00;;;;;;5076771;28;20464;-72
2023/09/14 03:04:26;;;;;;;6.50;5.33;;;14.30;1.00;;;;;;5075580;28;20544;-69
2023/09/14 03:06:54;;;;;;;6.23;4.03;;;14.20;1.00;;;;;;5074921;28;20946;-69
2023/09/14 03:09:25;;;;;;;8.10;4.63;;;14.20;1.00;;;;;;5079061;28;20472;-72
2023/09/14 03:11:52;;;;;;;4.90;4.10;;;14.20;1.00;;;;;;5077106;28;20999;-70
2023/09/14 03:14:19;;;;;;;4.80;4.13;;;14.10;1.00;;;;;;5075992;28;20459;-69
2023/09/14 03:16:46;;;;;;;5.30;4.10;;;14.10;1.00;;;;;;5075428;28;20510;-71
2023/09/14 03:19:13;;;;;;;6.73;4.50;;;14.10;1.00;;;;;;5076784;28;20480;-70
2023/09/14 03:21:40;;;;;;;5.53;4.40;;;14.10;1.00;;;;;;5079320;28;20519;-70
2023/09/14 03:24:07;;;;;;;6.50;4.47;;;14.00;1.00;;;;;;5057783;28;20555;-70
2023/09/14 03:26:35;;;;;;;6.93;5.17;;;14.00;1.00;;;;;;5077158;28;20518;-69
2023/09/14 03:29:02;;;;;;;6.50;4.97;;;13.90;1.00;;;;;;5077848;28;20576;-69
2023/09/14 03:31:29;;;;;;;7.83;4.90;;;13.90;1.00;;;;;;5078599;28;20550;-71
2023/09/14 03:33:56;;;;;;;4.93;4.43;;;13.80;1.00;;;;;;5075438;28;20464;-73
2023/09/14 03:36:23;;;;;;;9.60;4.60;;;13.80;1.00;;;;;;5076925;28;21103;-72
2023/09/14 03:38:50;;;;;;;10.53;5.00;;;13.80;1.00;;;;;;5079279;28;20913;-69
2023/09/14 03:41:18;;;;;;;5.93;4.83;;;13.80;1.00;;;;;;5077926;28;20541;-71
2023/09/14 03:43:46;;;;;;;5.63;5.03;;;13.80;1.00;;;;;;5077389;28;20480;-70
2023/09/14 03:46:15;;;;;;;7.50;4.53;;;13.80;1.00;;;;;;5077474;28;20460;-70
2023/09/14 03:48:42;;;;;;;6.00;4.47;;;13.80;1.00;;;;;;5078868;28;20460;-70
2023/09/14 03:51:09;;;;;;;8.63;4.17;;;13.80;1.00;;;;;;5075685;28;20493;-71
2023/09/14 03:53:36;;;;;;;5.50;4.00;;;13.80;1.00;;;;;;5077822;28;20472;-69
2023/09/14 03:56:04;;;;;;;5.10;4.60;;;13.80;1.00;;;;;;5074346;28;20928;-69
2023/09/14 03:58:31;;;;;;;6.37;4.90;;;13.80;1.00;;;;;;5077042;28;20465;-68
2023/09/14 04:01:00;;;;;;;5.43;4.27;;;13.70;1.00;;;;;;5079177;28;20549;-70
2023/09/14 04:03:27;;;;;;;5.70;4.60;;;13.70;1.00;;;;;;5070600;28;21822;-70
2023/09/14 04:05:54;;;;;;;5.87;4.53;;;13.70;1.00;;;;;;5073791;28;20457;-69
2023/09/14 04:08:22;;;;;;;6.30;4.93;;;13.70;1.00;;;;;;5074722;27;20568;-71
2023/09/14 04:10:51;;;;;;;7.60;4.70;;;13.70;1.00;;;;;;5076471;28;20479;-70
2023/09/14 04:13:30;;;;;;;8.70;6.00;;;13.70;1.00;;;;;;5073395;28;20468;-70
2023/09/14 04:16:00;;;;;;;7.63;6.00;;;13.70;1.00;;;;;;5075640;28;20536;-72
2023/09/14 04:18:29;;;;;;;7.90;5.00;;;13.70;1.00;;;;;;5070961;28;20474;-71
2023/09/14 04:20:56;;;;;;;7.00;5.17;;;13.70;1.00;;;;;;5077424;28;20471;-69
2023/09/14 04:23:23;;;;;;;7.90;4.83;;;13.80;1.00;;;;;;5073609;28;20951;-69
2023/09/14 04:25:51;;;;;;;5.90;5.00;;;13.80;1.00;;;;;;5072431;28;20453;-72
2023/09/14 04:28:21;;;;;;;5.60;4.27;;;13.80;1.00;;;;;;5075161;28;20495;-73
2023/09/14 04:30:49;;;;;;;7.20;5.93;;;13.70;1.00;;;;;;5073260;28;20517;-69
2023/09/14 04:33:19;;;;;;;6.67;5.63;;;13.80;1.00;;;;;;5078362;28;20458;-76
2023/09/14 04:35:46;;;;;;;6.73;5.53;;;13.80;1.00;;;;;;5078827;28;20460;-74
2023/09/14 04:38:13;;;;;;;10.20;9.20;;;13.70;1.00;;;;;;5079933;28;20583;-75
2023/09/14 04:40:42;;;;;;;20.10;9.77;;;13.70;1.00;;;;;;5078258;28;20579;-76
2023/09/14 04:43:09;;;;;;;7.70;5.80;;;13.70;1.00;;;;;;5073439;28;20622;-77
2023/09/14 04:45:36;;;;;;;7.30;4.83;;;13.70;1.00;;;;;;5078462;28;20479;-74
2023/09/14 04:48:03;;;;;;;8.60;5.07;;;13.70;1.00;;;;;;5077117;28;20549;-75
2023/09/14 04:50:32;;;;;;;6.67;5.63;;;13.70;1.00;;;;;;5076583;28;20515;-76
2023/09/14 04:52:59;;;;;;;5.30;4.80;;;13.70;1.00;;;;;;5080995;28;20493;-73
2023/09/14 04:55:26;;;;;;;7.73;4.60;;;13.70;1.00;;;;;;5075976;28;20465;-73
2023/09/14 04:57:53;;;;;;;6.37;5.00;;;13.70;1.00;;;;;;5076722;28;20534;-73
2023/09/14 05:00:20;;;;;;;6.83;5.40;;;13.70;1.00;;;;;;5074926;28;20467;-74
2023/09/14 05:02:47;;;;;;;6.67;5.33;;;13.70;1.00;;;;;;5077673;28;20456;-74
2023/09/14 05:05:14;;;;;;;7.00;5.20;;;13.70;1.00;;;;;;5075920;28;21006;-75
2023/09/14 05:07:43;;;;;;;8.47;5.03;;;13.70;1.00;;;;;;5080667;28;20480;-75
2023/09/14 05:10:11;;;;;;;6.47;5.03;;;13.80;1.00;;;;;;5083604;28;20948;-72
2023/09/14 05:12:38;;;;;;;7.60;5.60;;;13.90;1.00;;;;;;5081415;28;21232;-75
2023/09/14 05:15:06;;;;;;;7.17;5.57;;;13.90;1.00;;;;;;5081270;28;20450;-73
2023/09/14 05:17:33;;;;;;;7.33;4.50;;;13.90;1.00;;;;;;5078704;28;20479;-76
2023/09/14 05:20:00;;;;;;;6.53;4.50;;;14.00;1.00;;;;;;5083738;28;20502;-73
2023/09/14 05:22:28;;;;;;;6.80;5.10;;;14.00;1.00;;;;;;5086425;28;21045;-72
2023/09/14 05:24:56;;;;;;;6.47;5.30;;;13.90;1.00;;;;;;5084915;28;20472;-75
2023/09/14 05:27:23;;;;;;;6.43;5.67;;;13.90;1.00;;;;;;5081900;28;20470;-75
2023/09/14 05:29:50;;;;;;;8.83;5.60;;;14.00;1.00;;;;;;5081847;28;20562;-73
2023/09/14 05:32:17;;;;;;;8.40;6.40;;;14.00;1.00;;;;;;5079688;28;20538;-75
2023/09/14 05:34:44;;;;;;;10.00;8.97;;;14.00;1.00;;;;;;5080145;28;20494;-74
2023/09/14 05:37:14;;;;;;;14.93;7.37;;;14.10;1.00;;;;;;5082134;28;20994;-76
2023/09/14 05:39:41;;;;;;;10.13;6.40;;;14.10;1.00;;;;;;5083101;28;20499;-76
2023/09/14 05:42:09;;;;;;;6.40;5.80;;;14.10;1.00;;;;;;5078874;28;20540;-72
2023/09/14 05:44:36;;;;;;;6.20;5.57;;;14.20;1.00;;;;;;5081149;28;20578;-69
2023/09/14 05:47:03;;;;;;;8.10;5.63;;;14.20;1.00;;;;;;5081173;28;20530;-71
2023/09/14 05:49:30;;;;;;;7.50;5.37;;;14.30;1.00;;;;;;5083085;28;20464;-69
2023/09/14 05:51:58;;;;;;;6.97;4.70;;;14.30;1.00;;;;;;5082121;28;20457;-71
2023/09/14 05:54:25;;;;;;;7.80;5.33;;;14.30;1.00;;;;;;5084224;28;21054;-69
2023/09/14 05:56:53;;;;;;;10.73;5.13;;;14.30;1.00;;;;;;5081734;28;20473;-68
2023/09/14 05:59:22;;;;;;;11.33;7.87;;;14.40;1.00;;;;;;5085550;28;20496;-68
2023/09/14 06:01:49;;;;;;;6.87;5.50;;;14.40;1.00;;;;;;5081590;28;20457;-71
2023/09/14 06:04:16;;;;;;;7.07;5.23;;;14.40;1.00;;;;;;5084924;28;20544;-70
2023/09/14 06:06:43;;;;;;;9.40;5.97;;;14.40;1.00;;;;;;5081359;28;20562;-68
2023/09/14 06:09:10;;;;;;;5.10;4.60;;;14.50;1.00;;;;;;5082365;28;20465;-69
2023/09/14 06:11:37;;;;;;;10.23;6.70;;;14.50;1.00;;;;;;5081478;28;20454;-74
2023/09/14 06:14:04;;;;;;;9.07;6.50;;;14.60;1.00;;;;;;5082497;28;21714;-68
2023/09/14 06:16:32;;;;;;;8.10;5.60;;;14.70;1.00;;;;;;5080751;28;20476;-68
2023/09/14 06:18:59;;;;;;;7.27;4.13;;;14.70;1.00;;;;;;5079629;28;20483;-68
2023/09/14 06:21:26;;;;;;;11.00;9.00;;;14.80;1.00;;;;;;5081869;28;20484;-71
2023/09/14 06:23:53;;;;;;;7.70;4.70;;;14.90;1.00;;;;;;5083875;28;20478;-68
2023/09/14 06:26:20;;;;;;;8.10;3.93;;;15.00;1.00;;;;;;5083658;28;20480;-69
2023/09/14 06:28:47;;;;;;;8.03;5.40;;;15.10;1.00;;;;;;5081044;28;20553;-71
2023/09/14 06:31:14;;;;;;;8.10;4.50;;;15.10;1.00;;;;;;5081105;28;21098;-69
2023/09/14 06:33:42;;;;;;;4.93;4.40;;;15.20;1.00;;;;;;5083530;28;20468;-72
2023/09/14 06:36:10;;;;;;;6.53;5.07;;;15.20;1.00;;;;;;5083330;28;20490;-73
2023/09/14 06:38:37;;;;;;;10.23;5.07;;;15.30;1.00;;;;;;5083716;28;20493;-72
2023/09/14 06:41:04;;;;;;;8.00;5.00;;;15.40;1.00;;;;;;5082515;28;20959;-68
2023/09/14 06:43:31;;;;;;;4.00;3.60;;;15.40;1.00;;;;;;5078734;28;21160;-70
2023/09/14 06:45:58;;;;;;;7.70;5.40;;;15.50;1.00;;;;;;5079565;28;20893;-68
2023/09/14 06:48:25;;;;;;;5.90;4.20;;;15.60;1.00;;;;;;5078339;28;20977;-72
2023/09/14 06:50:53;;;;;;;5.63;3.93;;;15.70;1.00;;;;;;5083448;28;20485;-70
2023/09/14 06:53:20;;;;;;;5.90;3.80;;;15.70;1.00;;;;;;5078562;28;20583;-72
2023/09/14 06:55:48;;;;;;;8.17;4.60;;;15.80;1.00;;;;;;5078819;28;20527;-72
2023/09/14 06:58:15;;;;;;;5.53;4.63;;;15.90;1.00;;;;;;5081248;28;20470;-76
2023/09/14 07:00:42;;;;;;;7.83;4.27;;;16.00;1.00;;;;;;5081688;28;20469;-75
2023/09/14 07:03:09;;;;;;;6.67;5.20;;;16.00;1.00;;;;;;5080227;28;20473;-75
2023/09/14 07:05:37;;;;;;;7.60;4.60;;;16.10;1.00;;;;;;5081996;28;20628;-76
2023/09/14 07:08:06;;;;;;;4.70;3.40;;;16.20;1.00;;;;;;5083912;28;20458;-74
2023/09/14 07:10:33;;;;;;;8.47;3.73;;;16.20;1.00;;;;;;5079323;28;20539;-77
2023/09/14 07:13:00;;;;;;;5.80;3.97;;;16.30;1.00;;;;;;5081300;28;20977;-74
2023/09/14 07:15:27;;;;;;;8.27;7.37;;;16.40;1.00;;;;;;5077728;28;20466;-76
2023/09/14 07:17:54;;;;;;;8.63;4.83;;;16.50;1.00;;;;;;5082026;28;20885;-74
2023/09/14 07:20:21;;;;;;;7.23;4.43;;;16.60;1.00;;;;;;5079939;28;20470;-77
2023/09/14 07:22:48;;;;;;;4.87;3.50;;;16.70;1.00;;;;;;5081736;28;20547;-77
2023/09/14 07:25:16;;;;;;;9.50;5.17;;;16.80;1.00;;;;;;5078583;28;20627;-76
2023/09/14 07:27:44;;;;;;;6.17;3.70;;;16.90;1.00;;;;;;5082080;28;20546;-77
2023/09/14 07:30:14;;;;;;;4.57;3.50;;;17.00;1.00;;;;;;5082231;28;20461;-77
2023/09/14 07:32:41;;;;;;;5.20;2.97;;;17.20;1.00;;;;;;5076907;28;20463;-73
2023/09/14 07:35:09;;;;;;;3.50;3.17;;;17.20;1.00;;;;;;5078301;28;20478;-71
2023/09/14 07:37:37;;;;;;;3.20;2.30;;;17.30;1.00;;;;;;5076747;28;20513;-72
2023/09/14 07:40:07;;;;;;;4.20;3.10;;;17.30;1.00;;;;;;5077296;28;20454;-72
2023/09/14 07:42:35;;;;;;;6.43;3.50;;;17.40;1.00;;;;;;5080518;28;20829;-75
2023/09/14 07:45:03;;;;;;;5.83;2.60;;;17.50;1.00;;;;;;5080497;28;20553;-73
2023/09/14 07:47:30;;;;;;;4.10;2.83;;;17.70;1.00;;;;;;5080121;28;20459;-73
2023/09/14 07:49:58;;;;;;;3.40;2.33;;;17.80;1.00;;;;;;5079765;28;20483;-74
2023/09/14 07:52:25;;;;;;;5.07;2.80;;;17.90;1.00;;;;;;5079156;28;20459;-72
2023/09/14 07:54:51;;;;;;;5.03;2.50;;;18.00;1.00;;;;;;5079926;28;20471;-73
2023/09/14 07:57:18;;;;;;;4.30;2.37;;;18.10;1.00;;;;;;5077087;28;20524;-74
2023/09/14 07:59:47;;;;;;;3.10;2.17;;;18.20;1.00;;;;;;5080150;28;20456;-74
2023/09/14 08:02:13;;;;;;;3.73;2.07;;;18.40;1.00;;;;;;5080087;28;20479;-74
2023/09/14 08:04:41;;;;;;;5.23;3.80;;;18.50;1.00;;;;;;5076982;28;20566;-72
2023/09/14 08:07:08;;;;;;;3.73;2.50;;;18.60;1.00;;;;;;5078575;28;20464;-71
2023/09/14 08:09:34;;;;;;;4.67;2.87;;;18.60;1.00;;;;;;5076495;28;20502;-70
2023/09/14 08:12:01;;;;;;;5.03;2.77;;;18.70;1.00;;;;;;5080032;28;20549;-70
2023/09/14 08:14:28;;;;;;;5.23;2.63;;;18.80;1.00;;;;;;5080946;28;20531;-71
2023/09/14 08:16:56;;;;;;;7.07;2.70;;;18.90;1.00;;;;;;5077029;28;20452;-71
2023/09/14 08:19:23;;;;;;;3.40;2.50;;;18.90;1.00;;;;;;5079050;28;20875;-74
2023/09/14 08:21:52;;;;;;;8.77;2.60;;;18.90;1.00;;;;;;5078089;28;20439;-70
2023/09/14 08:24:19;;;;;;;7.70;2.20;;;19.10;1.00;;;;;;5077334;28;22033;-73
2023/09/14 08:26:46;;;;;;;4.20;2.60;;;19.10;1.00;;;;;;5075033;28;20460;-70
2023/09/14 08:29:13;;;;;;;2.90;2.27;;;19.20;1.00;;;;;;5074711;28;20985;-71
2023/09/14 08:31:42;;;;;;;4.43;2.27;;;19.20;1.00;;;;;;5072275;28;20448;-72
2023/09/14 08:34:11;;;;;;;5.73;2.23;;;19.30;1.00;;;;;;5079998;28;20480;-71
2023/09/14 08:36:39;;;;;;;3.03;2.27;;;19.30;1.00;;;;;;5078358;28;20448;-72
2023/09/14 08:39:06;;;;;;;5.50;2.30;;;19.50;1.00;;;;;;5080192;28;20467;-71
2023/09/14 08:41:36;;;;;;;3.60;2.77;;;19.60;1.00;;;;;;5084607;28;20959;-72
2023/09/14 08:44:05;;;;;;;5.73;3.40;;;19.70;1.00;;;;;;5083513;28;20597;-71
2023/09/14 08:46:33;;;;;;;3.73;2.63;;;19.90;1.00;;;;;;5083411;28;20442;-71
2023/09/14 08:49:01;;;;;;;2.60;2.30;;;20.00;1.00;;;;;;5085474;28;20922;-70
2023/09/14 08:51:30;;;;;;;3.23;2.90;;;20.10;1.00;;;;;;5081906;28;20457;-72
2023/09/14 08:54:00;;;;;;;4.03;2.23;;;20.20;1.00;;;;;;5081331;28;20525;-72
2023/09/14 08:56:28;;;;;;;2.40;2.20;;;20.30;1.00;;;;;;5083278;28;20545;-71
2023/09/14 08:58:56;;;;;;;4.20;2.43;;;20.40;1.00;;;;;;5082504;28;20488;-72
2023/09/14 09:01:24;;;;;;;4.63;2.73;;;20.50;1.00;;;;;;5084157;28;20533;-72
2023/09/14 09:03:51;;;;;;;4.23;2.70;;;20.50;1.00;;;;;;5078789;28;20488;-72
2023/09/14 09:06:19;;;;;;;3.60;2.60;;;20.60;1.00;;;;;;5075771;28;20456;-72
2023/09/14 09:08:47;;;;;;;5.87;3.00;;;20.60;1.00;;;;;;5074698;28;20986;-73
2023/09/14 09:11:14;;;;;;;4.50;2.80;;;20.80;1.00;;;;;;5071898;28;20570;-71
2023/09/14 09:13:45;;;;;;;4.00;2.47;;;21.30;1.00;;;;;;5077390;28;20495;-75
2023/09/14 09:16:13;;;;;;;6.10;1.97;;;21.40;1.00;;;;;;5084618;28;20960;-73
2023/09/14 09:19:02;;;;;;;5.87;2.40;;;21.50;1.00;;;;;;5087020;28;20454;-73
2023/09/14 09:21:30;;;;;;;4.77;2.63;;;22.90;1.00;;;;;;5085313;28;20598;-74
2023/09/14 09:23:59;;;;;;;3.43;2.03;;;24.30;1.00;;;;;;5084747;28;20476;-73
2023/09/14 09:26:32;;;;;;;4.00;2.60;;;25.10;1.00;;;;;;5082112;28;20657;-73
2023/09/14 09:28:59;;;;;;;3.93;2.03;;;25.00;1.00;;;;;;5080582;28;20428;-72
2023/09/14 09:31:41;;;;;;;5.07;4.57;;;25.20;1.00;;;;;;5082918;28;20484;-73
2023/09/14 09:34:09;;;;;;;5.10;2.53;;;26.20;1.00;;;;;;5084159;28;20436;-73
2023/09/14 09:36:37;;;;;;;4.00;2.60;;;27.70;1.00;;;;;;5081152;28;20464;-73
2023/09/14 09:39:06;;;;;;;3.13;2.40;;;28.40;1.00;;;;;;5079249;28;20460;-75
2023/09/14 09:41:34;;;;;;;5.20;2.67;;;29.70;1.00;;;;;;5084721;28;20445;-75
2023/09/14 09:44:05;;;;;;;5.07;2.67;;;29.80;1.00;;;;;;5075117;28;20905;-72
2023/09/14 09:46:34;;;;;;;4.30;2.97;;;28.60;1.00;;;;;;5083610;28;20573;-74
2023/09/14 09:49:01;;;;;;;3.80;2.83;;;27.20;1.00;;;;;;5090520;28;20471;-74
2023/09/14 09:51:29;;;;;;;3.33;2.73;;;27.20;1.00;;;;;;5080446;28;20552;-73
2023/09/14 09:54:03;;;;;;;3.77;2.50;;;27.50;1.00;;;;;;5079251;28;20838;-75
2023/09/14 09:56:33;;;;;;;4.13;2.53;;;26.90;1.00;;;;;;5082759;28;20456;-74
2023/09/14 09:59:04;;;;;;;4.53;2.60;;;26.10;1.00;;;;;;5082034;28;20496;-73
2023/09/14 10:01:31;;;;;;;3.33;2.27;;;26.20;1.00;;;;;;5081755;28;20470;-75
2023/09/14 10:03:59;;;;;;;3.73;2.27;;;25.70;1.00;;;;;;5079724;28;20493;-73
2023/09/14 10:06:27;;;;;;;3.50;2.20;;;25.20;1.00;;;;;;5077289;28;20974;-74
2023/09/14 10:08:57;;;;;;;2.90;2.63;;;24.70;1.00;;;;;;5083651;28;20469;-74
2023/09/14 10:11:25;;;;;;;2.67;2.00;;;24.10;1.00;;;;;;5078961;28;20475;-73
2023/09/14 10:13:54;;;;;;;4.33;3.00;;;23.80;1.00;;;;;;5081733;28;20504;-72
2023/09/14 10:16:24;;;;;;;2.97;2.67;;;25.00;1.00;;;;;;5082342;28;20565;-72
2023/09/14 10:18:55;;;;;;;3.40;2.43;;;26.50;1.00;;;;;;5078905;28;20548;-73
2023/09/14 10:21:24;;;;;;;5.00;2.50;;;28.20;1.00;;;;;;5081878;28;20835;-73
2023/09/14 10:23:51;;;;;;;5.97;3.00;;;29.90;1.00;;;;;;5084187;28;20506;-73
2023/09/14 10:26:18;;;;;;;3.77;2.70;;;31.10;1.00;;;;;;5081160;28;20460;-74
2023/09/14 10:28:47;;;;;;;5.10;2.70;;;30.40;1.00;;;;;;5077906;28;20650;-72
2023/09/14 10:31:18;;;;;;;3.30;2.63;;;28.90;1.00;;;;;;5080000;28;20479;-73
2023/09/14 10:33:46;;;;;;;3.50;2.60;;;28.40;1.00;;;;;;5080271;28;20491;-73
2023/09/14 10:36:14;;;;;;;7.33;3.30;;;29.30;1.00;;;;;;5079144;28;20473;-72
2023/09/14 10:38:43;;;;;;;6.60;3.17;;;30.60;1.00;;;;;;5081505;28;20464;-73
2023/09/14 10:41:12;;;;;;;3.00;2.40;;;31.60;1.00;;;;;;5079309;28;20454;-72
2023/09/14 10:43:41;;;;;;;3.57;2.73;;;32.60;1.00;;;;;;5080232;28;20923;-73
2023/09/14 10:46:15;;;;;;;4.33;2.40;;;33.60;1.00;;;;;;5081668;28;20483;-73
2023/09/14 10:48:45;;;;;;;2.93;2.23;;;34.50;1.00;;;;;;5075385;28;21234;-73
2023/09/14 10:51:13;;;;;;;3.87;2.07;;;35.20;1.00;;;;;;5082861;28;20463;-74
2023/09/14 10:53:41;;;;;;;2.53;1.80;;;35.50;1.00;;;;;;5083355;28;21056;-73
2023/09/14 10:56:20;;;;;;;3.70;2.07;;;35.60;1.00;;;;;;5081529;28;20541;-73
2023/09/14 10:58:51;;;;;;;3.00;2.20;;;35.90;1.00;;;;;;5084626;28;21000;-73
2023/09/14 11:01:25;;;;;;;2.47;2.07;;;36.30;1.00;;;;;;5081687;28;20461;-72
2023/09/14 11:04:13;;;;;;;2.70;1.90;;;36.20;1.00;;;;;;5066612;28;20467;-74
2023/09/14 11:06:44;;;;;;;3.93;2.30;;;35.60;1.00;;;;;;5077438;28;20537;-73
2023/09/14 11:09:13;;;;;;;3.50;2.30;;;35.30;1.00;;;;;;5083371;28;20486;-74
2023/09/14 11:11:41;;;;;;;2.57;1.97;;;35.70;1.00;;;;;;5084687;28;20455;-74
2023/09/14 11:14:10;;;;;;;3.07;2.00;;;36.10;1.00;;;;;;5081623;28;20466;-74
2023/09/14 11:16:46;;;;;;;2.37;2.00;;;36.30;1.00;;;;;;5083696;28;20490;-75
2023/09/14 11:19:52;;;;;;;3.50;2.10;;;36.30;1.00;;;;;;5072626;28;20475;-75
2023/09/14 11:22:19;;;;;;;2.93;2.60;;;37.00;1.00;;;;;;5084377;28;20458;-74
2023/09/14 11:24:46;;;;;;;4.47;2.20;;;37.30;1.00;;;;;;5084213;28;20466;-74
2023/09/14 11:27:20;;;;;;;2.30;1.53;;;37.90;1.00;;;;;;5078488;28;20569;-75
2023/09/14 11:29:47;;;;;;;2.97;1.90;;;38.60;1.00;;;;;;5074878;28;20448;-76
2023/09/14 11:32:22;;;;;;;2.37;1.70;;;39.10;1.00;;;;;;5073365;28;20477;-75
2023/09/14 11:34:50;;;;;;;3.70;2.47;;;38.90;1.00;;;;;;5069305;28;20466;-73
2023/09/14 11:37:17;;;;;;;2.50;2.00;;;39.00;1.00;;;;;;5067823;28;20446;-72
2023/09/14 11:39:54;;;;;;;4.50;2.80;;;39.30;1.00;;;;;;5070309;28;20617;-72
2023/09/14 11:45:43;;;;;;;2.77;2.00;;;39.70;1.00;;;;;;5081922;28;20446;-73
2023/09/14 11:48:13;;;;;;;3.07;2.10;;;39.80;1.00;;;;;;5077221;28;20592;-70
2023/09/14 11:50:44;;;;;;;4.70;2.50;;;39.70;1.00;;;;;;5080517;28;20646;-72
2023/09/14 11:53:17;;;;;;;3.03;2.73;;;39.40;1.00;;;;;;5078059;28;20462;-72
2023/09/14 11:55:44;;;;;;;2.27;1.93;;;39.40;1.00;;;;;;5064434;28;21024;-73
2023/09/14 11:58:12;;;;;;;5.67;3.50;;;39.60;1.00;;;;;;5076436;28;21824;-74
2023/09/14 12:00:41;;;;;;;2.47;1.77;;;39.60;1.00;;;;;;5075166;28;20545;-71
2023/09/14 12:03:09;;;;;;;4.00;2.30;;;40.10;1.00;;;;;;5081593;28;20967;-72
2023/09/14 12:05:36;;;;;;;2.60;2.40;;;40.20;1.00;;;;;;5078742;28;20524;-72
2023/09/14 12:08:11;;;;;;;2.47;2.10;;;39.50;1.00;;;;;;5077111;28;21567;-73
2023/09/14 12:10:38;;;;;;;2.87;2.50;;;39.00;1.00;;;;;;5078215;28;20539;-71
2023/09/14 12:13:10;;;;;;;2.80;1.87;;;38.40;1.00;;;;;;5079020;28;20505;-70
2023/09/14 12:15:37;;;;;;;2.00;1.80;;;36.60;1.00;;;;;;5081590;27;20551;-71
2023/09/14 12:18:05;;;;;;;2.70;2.10;;;36.40;1.00;;;;;;5089445;28;20460;-73
2023/09/14 12:20:35;;;;;;;4.13;2.53;;;36.90;1.00;;;;;;5086833;28;20512;-71
2023/09/14 12:23:04;;;;;;;2.50;1.80;;;38.00;1.00;;;;;;5087215;28;20474;-71
2023/09/14 12:25:33;;;;;;;2.83;2.53;;;38.80;1.00;;;;;;5084595;28;20852;-73
2023/09/14 12:28:02;;;;;;;2.57;1.90;;;39.80;1.00;;;;;;5084890;28;20857;-74
2023/09/14 12:30:30;;;;;;;2.00;1.80;;;40.20;1.00;;;;;;5081202;28;20462;-72
2023/09/14 12:32:57;;;;;;;3.00;2.57;;;40.10;1.00;;;;;;5081309;28;20468;-72
2023/09/14 12:35:34;;;;;;;6.17;3.00;;;38.90;1.00;;;;;;5084891;28;20526;-73
2023/09/14 12:38:03;;;;;;;4.57;2.90;;;38.20;1.00;;;;;;5085688;28;20450;-72
2023/09/14 12:40:35;;;;;;;5.60;2.80;;;38.60;1.00;;;;;;5077833;28;21013;-72
2023/09/14 12:43:03;;;;;;;4.60;2.67;;;39.40;1.00;;;;;;5082603;28;20562;-70
2023/09/14 12:45:33;;;;;;;3.33;2.37;;;39.60;1.00;;;;;;5078928;28;20476;-75
2023/09/14 12:48:02;;;;;;;2.40;2.20;;;39.60;1.00;;;;;;5085194;28;20465;-74
2023/09/14 12:50:30;;;;;;;2.90;2.00;;;39.00;1.00;;;;;;5082098;28;21131;-76
2023/09/14 12:52:58;;;;;;;5.23;3.00;;;39.70;1.00;;;;;;5088063;28;20553;-74
2023/09/14 12:55:26;;;;;;;2.60;2.27;;;39.60;1.00;;;;;;5079543;28;21563;-74
2023/09/14 12:57:56;;;;;;;3.23;2.40;;;40.00;1.00;;;;;;5082068;28;20462;-74
2023/09/14 13:00:25;;;;;;;3.30;2.50;;;40.90;1.00;;;;;;5081742;28;21412;-73
2023/09/14 13:02:52;;;;;;;3.33;2.47;;;40.90;1.00;;;;;;5085510;28;20950;-74
2023/09/14 13:05:22;;;;;;;2.73;2.20;;;41.00;1.00;;;;;;5081800;28;20486;-74
2023/09/14 13:07:50;;;;;;;2.13;1.67;;;40.80;1.00;;;;;;5082039;28;20466;-73